createdAt,value
2018-10-16T00:01:15.354Z,96971.62
2018-10-16T00:03:42.768Z,96969.89
2018-10-16T00:06:10.070Z,96970.15
2018-10-16T00:08:38.119Z,96970.73
2018-10-16T00:11:08.439Z,96966.59
2018-10-16T00:13:36.050Z,96977.59
2018-10-16T00:16:03.462Z,96975.54
2018-10-16T00:18:30.925Z,96982.16
2018-10-16T00:20:58.368Z,96972.81
2018-10-16T00:23:25.848Z,96969.06
2018-10-16T00:25:53.267Z,96966.78
2018-10-16T00:28:20.701Z,96977.55
2018-10-16T00:30:48.097Z,96976.27
2018-10-16T00:33:15.564Z,96982.06
2018-10-16T00:35:42.875Z,96976.81
2018-10-16T00:38:10.320Z,96973.55
2018-10-16T00:40:37.745Z,96969.21
2018-10-16T00:43:05.145Z,96971.40
2018-10-16T00:45:33.778Z,96977.29
2018-10-16T00:48:01.240Z,96976.96
2018-10-16T00:50:28.577Z,96973.33
2018-10-16T00:52:56.027Z,96979.95
2018-10-16T00:55:23.414Z,96973.39
2018-10-16T00:57:50.841Z,96975.16
2018-10-16T01:00:19.337Z,96972.52
2018-10-16T01:02:46.900Z,96974.41
2018-10-16T01:05:14.308Z,96980.61
2018-10-16T01:07:42.070Z,96921.02
2018-10-16T01:10:10.296Z,96975.63
2018-10-16T01:12:38.467Z,96974.27
2018-10-16T01:15:06.716Z,96980.50
2018-10-16T01:17:34.294Z,96982.05
2018-10-16T01:20:01.665Z,96974.36
2018-10-16T01:22:29.083Z,96980.72
2018-10-16T01:24:56.445Z,96980.96
2018-10-16T01:27:24.218Z,96978.14
2018-10-16T01:29:51.769Z,96984.59
2018-10-16T01:32:19.126Z,96977.91
2018-10-16T01:34:46.468Z,96984.22
2018-10-16T01:37:13.825Z,96985.64
2018-10-16T01:39:41.200Z,96986.81
2018-10-16T01:42:08.578Z,96984.44
2018-10-16T01:44:35.979Z,96754.25
2018-10-16T01:47:03.682Z,96984.47
2018-10-16T01:49:30.976Z,96983.36
2018-10-16T01:51:58.322Z,96988.78
2018-10-16T01:54:25.672Z,96981.23
2018-10-16T01:56:53.027Z,96987.80
2018-10-16T01:59:20.434Z,96990.30
2018-10-16T02:01:47.808Z,96990.17
2018-10-16T02:04:15.297Z,96998.34
2018-10-16T02:06:42.639Z,96991.56
2018-10-16T02:09:11.414Z,96992.55
2018-10-16T02:11:38.901Z,96993.12
2018-10-16T02:14:06.300Z,96994.00
2018-10-16T02:16:33.657Z,96991.36
2018-10-16T02:19:01.034Z,96998.62
2018-10-16T02:21:28.433Z,96996.98
2018-10-16T02:23:55.851Z,96996.84
2018-10-16T02:26:23.238Z,97001.06
2018-10-16T02:28:50.633Z,97003.02
2018-10-16T02:31:17.994Z,97001.28
2018-10-16T02:33:45.418Z,97005.30
2018-10-16T02:36:12.749Z,97001.81
2018-10-16T02:38:40.077Z,97006.35
2018-10-16T02:41:07.393Z,97012.53
2018-10-16T02:43:34.817Z,97013.34
2018-10-16T02:46:02.146Z,97016.22
2018-10-16T02:48:29.572Z,97015.40
2018-10-16T02:50:57.045Z,97014.63
2018-10-16T02:53:24.430Z,97021.31
2018-10-16T02:55:51.882Z,97020.44
2018-10-16T02:58:19.283Z,97025.66
2018-10-16T03:00:46.673Z,97024.44
2018-10-16T03:03:13.993Z,97023.66
2018-10-16T03:05:41.362Z,97016.73
2018-10-16T03:08:08.842Z,97021.69
2018-10-16T03:10:36.090Z,97007.07
2018-10-16T03:13:03.415Z,97018.03
2018-10-16T03:15:30.767Z,97017.25
2018-10-16T03:17:58.250Z,97013.69
2018-10-16T03:20:25.596Z,97016.25
2018-10-16T03:22:52.923Z,97013.10
2018-10-16T03:25:20.202Z,97021.03
2018-10-16T03:27:47.535Z,97015.28
2018-10-16T03:30:15.012Z,97014.11
2018-10-16T03:32:42.400Z,97017.16
2018-10-16T03:35:11.980Z,97023.45
2018-10-16T03:37:40.466Z,97020.34
2018-10-16T03:40:08.727Z,97024.02
2018-10-16T03:42:36.522Z,97029.01
2018-10-16T03:45:04.968Z,97033.53
2018-10-16T03:47:33.272Z,97033.33
2018-10-16T03:50:06.690Z,97036.20
2018-10-16T03:52:39.339Z,97046.20
2018-10-16T03:55:07.243Z,97046.41
2018-10-16T03:57:34.731Z,97043.53
2018-10-16T04:00:02.416Z,97048.67
2018-10-16T04:02:29.949Z,97051.77
2018-10-16T04:04:57.506Z,97055.63
2018-10-16T04:07:24.869Z,97060.42
2018-10-16T04:09:52.586Z,97056.25
2018-10-16T04:12:19.925Z,97053.10
2018-10-16T04:14:47.395Z,97050.00
2018-10-16T04:17:14.835Z,97057.43
2018-10-16T04:19:42.333Z,97059.98
2018-10-16T04:22:09.678Z,97063.98
2018-10-16T04:24:37.193Z,97063.57
2018-10-16T04:27:04.825Z,97063.06
2018-10-16T04:29:32.419Z,96930.63
2018-10-16T04:31:59.839Z,97067.34
2018-10-16T04:34:27.198Z,97066.98
2018-10-16T04:36:54.545Z,97067.89
2018-10-16T04:39:21.843Z,97064.86
2018-10-16T04:41:49.377Z,97067.49
2018-10-16T04:44:16.829Z,97064.23
2018-10-16T04:46:44.184Z,97044.72
2018-10-16T04:49:11.635Z,97064.36
2018-10-16T04:51:38.977Z,97072.73
2018-10-16T04:54:06.365Z,97075.01
2018-10-16T04:56:33.687Z,97078.20
2018-10-16T04:59:01.298Z,97073.16
2018-10-16T05:01:28.711Z,97064.57
2018-10-16T05:03:56.160Z,97062.12
2018-10-16T05:06:23.530Z,97058.84
2018-10-16T05:08:50.894Z,97051.37
2018-10-16T05:11:18.254Z,97052.13
2018-10-16T05:13:45.637Z,97045.83
2018-10-16T05:16:13.111Z,97056.45
2018-10-16T05:18:40.546Z,97065.17
2018-10-16T05:21:07.881Z,97060.98
2018-10-16T05:23:35.303Z,97062.55
2018-10-16T05:26:02.705Z,97066.22
2018-10-16T05:28:30.125Z,97059.67
2018-10-16T05:30:57.574Z,97067.95
2018-10-16T05:33:24.969Z,97075.80
2018-10-16T05:35:52.393Z,97075.28
2018-10-16T05:38:19.834Z,97074.23
2018-10-16T05:40:47.409Z,97079.67
2018-10-16T05:43:15.131Z,97081.30
2018-10-16T05:45:44.172Z,97084.12
2018-10-16T05:48:11.671Z,97086.72
2018-10-16T05:50:39.363Z,97086.80
2018-10-16T05:53:06.998Z,97096.33
2018-10-16T05:55:34.832Z,97098.58
2018-10-16T05:58:02.491Z,97107.41
2018-10-16T06:00:34.603Z,97110.73
2018-10-16T06:03:02.561Z,97113.25
2018-10-16T06:05:30.127Z,97113.56
2018-10-16T06:08:21.695Z,97116.16
2018-10-16T06:10:49.538Z,97118.30
2018-10-16T06:13:17.323Z,97120.52
2018-10-16T06:15:44.945Z,97121.59
2018-10-16T06:18:13.346Z,97120.77
2018-10-16T06:20:41.216Z,97125.25
2018-10-16T06:23:09.068Z,97120.63
2018-10-16T06:25:36.967Z,97120.65
2018-10-16T06:28:14.928Z,97130.67
2018-10-16T06:30:42.760Z,97129.20
2018-10-16T06:33:10.871Z,97128.98
2018-10-16T06:35:38.656Z,97131.56
2018-10-16T06:38:06.250Z,97136.85
2018-10-16T06:40:33.906Z,97131.92
2018-10-16T06:43:01.445Z,97129.38
2018-10-16T06:45:28.959Z,97132.88
2018-10-16T06:47:56.511Z,97126.75
2018-10-16T06:50:23.997Z,97127.93
2018-10-16T06:52:51.536Z,97125.93
2018-10-16T06:55:19.201Z,97131.94
2018-10-16T06:57:46.679Z,97138.98
2018-10-16T07:00:14.456Z,97138.45
2018-10-16T07:02:41.965Z,97151.41
2018-10-16T07:05:09.486Z,97144.95
2018-10-16T07:07:36.957Z,97149.91
2018-10-16T07:10:05.959Z,97146.67
2018-10-16T07:12:33.528Z,97141.03
2018-10-16T07:15:01.138Z,97146.66
2018-10-16T07:17:28.693Z,97144.22
2018-10-16T07:19:56.226Z,97147.72
2018-10-16T07:22:24.003Z,97163.06
2018-10-16T07:24:51.507Z,97166.41
2018-10-16T07:27:18.987Z,97152.57
2018-10-16T07:29:46.636Z,97143.45
2018-10-16T07:32:14.215Z,97146.22
2018-10-16T07:34:41.756Z,97146.47
2018-10-16T07:37:09.500Z,97155.28
2018-10-16T07:39:37.095Z,97152.38
2018-10-16T07:42:04.733Z,97144.23
2018-10-16T07:44:32.263Z,97149.32
2018-10-16T07:46:59.800Z,97149.84
2018-10-16T07:49:27.212Z,97144.23
2018-10-16T07:51:54.558Z,97149.67
2018-10-16T07:54:22.000Z,97142.31
2018-10-16T07:56:49.454Z,97150.23
2018-10-16T07:59:16.837Z,97153.29
2018-10-16T08:01:44.173Z,97144.54
2018-10-16T08:04:11.592Z,97145.73
2018-10-16T08:06:38.999Z,97141.73
2018-10-16T08:09:16.848Z,97135.28
2018-10-16T08:11:48.621Z,97135.55
2018-10-16T08:14:17.205Z,97138.38
2018-10-16T08:16:45.911Z,97141.61
2018-10-16T08:19:13.415Z,97137.87
2018-10-16T08:21:40.846Z,97139.78
2018-10-16T08:24:08.572Z,97139.80
2018-10-16T08:26:35.983Z,97142.31
2018-10-16T08:29:03.733Z,97145.27
2018-10-16T08:31:31.115Z,97147.02
2018-10-16T08:33:58.554Z,97139.16
2018-10-16T08:36:26.106Z,97142.46
2018-10-16T08:39:07.859Z,97127.81
2018-10-16T08:43:50.149Z,97132.86
2018-10-16T08:46:29.203Z,97130.53
2018-10-16T08:49:08.145Z,97144.92
2018-10-16T08:51:40.839Z,97138.22
2018-10-16T08:54:08.639Z,97140.42
2018-10-16T08:56:36.117Z,97132.19
2018-10-16T08:59:03.653Z,97136.55
2018-10-16T09:01:31.049Z,97143.31
2018-10-16T09:03:59.098Z,97141.47
2018-10-16T09:06:26.543Z,97138.80
2018-10-16T09:08:53.960Z,97143.61
2018-10-16T09:11:21.389Z,97144.78
2018-10-16T09:13:48.827Z,97149.48
2018-10-16T09:16:16.298Z,97150.87
2018-10-16T09:18:43.757Z,97146.12
2018-10-16T09:21:11.134Z,97146.70
2018-10-16T09:23:38.619Z,97148.88
2018-10-16T09:26:06.176Z,97151.17
2018-10-16T09:28:33.670Z,97148.20
2018-10-16T09:31:01.083Z,97144.97
2018-10-16T09:33:28.381Z,97150.54
2018-10-16T09:35:55.826Z,97146.60
2018-10-16T09:38:23.232Z,97141.70
2018-10-16T09:40:50.580Z,97142.13
2018-10-16T09:43:17.975Z,97148.11
2018-10-16T09:45:45.457Z,97143.70
2018-10-16T09:48:12.810Z,97151.02
2018-10-16T09:50:40.146Z,97153.72
2018-10-16T09:53:07.746Z,97157.75
2018-10-16T09:55:35.070Z,97161.05
2018-10-16T09:58:02.471Z,97159.20
2018-10-16T10:00:35.471Z,97152.89
2018-10-16T10:03:03.026Z,97157.09
2018-10-16T10:05:30.513Z,97148.94
2018-10-16T10:07:57.889Z,97153.14
2018-10-16T10:10:25.346Z,97154.84
2018-10-16T10:12:52.721Z,97154.02
2018-10-16T10:15:20.123Z,97145.15
2018-10-16T10:17:47.564Z,97151.14
2018-10-16T10:20:14.960Z,97149.70
2018-10-16T10:22:42.379Z,97142.55
2018-10-16T10:25:09.867Z,97147.33
2018-10-16T10:27:37.217Z,97143.83
2018-10-16T10:30:06.970Z,97151.20
2018-10-16T10:32:34.294Z,97149.38
2018-10-16T10:35:01.652Z,97147.69
2018-10-16T10:37:29.109Z,97144.00
2018-10-16T10:39:56.549Z,97143.77
2018-10-16T10:42:23.910Z,97137.70
2018-10-16T10:44:51.299Z,97137.07
2018-10-16T10:47:18.752Z,97131.44
2018-10-16T10:49:46.189Z,97125.50
2018-10-16T10:52:13.640Z,97123.95
2018-10-16T10:54:41.011Z,97127.04
2018-10-16T10:57:08.610Z,97122.23
2018-10-16T10:59:35.879Z,97124.28
2018-10-16T11:02:04.104Z,97116.41
2018-10-16T11:04:31.632Z,97117.18
2018-10-16T11:06:59.095Z,97108.86
2018-10-16T11:09:26.401Z,97109.54
2018-10-16T11:11:54.826Z,97101.55
2018-10-16T11:14:23.275Z,97097.29
2018-10-16T11:16:50.687Z,97093.15
2018-10-16T11:19:18.486Z,97088.08
2018-10-16T11:21:46.000Z,97091.80
2018-10-16T11:24:13.437Z,97087.39
2018-10-16T11:26:40.799Z,97089.81
2018-10-16T11:29:08.192Z,97088.88
2018-10-16T11:31:35.816Z,97093.88
2018-10-16T11:34:03.147Z,97086.98
2018-10-16T11:36:30.517Z,97089.86
2018-10-16T11:38:57.926Z,97084.22
2018-10-16T11:41:25.367Z,97090.88
2018-10-16T11:43:52.804Z,97083.53
2018-10-16T11:46:20.205Z,97079.63
2018-10-16T11:48:47.617Z,97079.05
2018-10-16T11:51:14.981Z,97071.75
2018-10-16T11:53:42.446Z,97074.59
2018-10-16T11:56:10.035Z,97078.67
2018-10-16T11:58:37.424Z,97071.80
2018-10-16T12:01:04.801Z,97071.40
2018-10-16T12:03:32.169Z,97081.98
2018-10-16T12:05:59.647Z,97080.22
2018-10-16T12:08:27.068Z,97079.02
2018-10-16T12:10:54.495Z,97077.05
2018-10-16T12:13:21.751Z,97076.84
2018-10-16T12:15:49.106Z,97072.54
2018-10-16T12:18:26.312Z,97081.06
2018-10-16T12:20:57.934Z,97077.84
2018-10-16T12:23:25.430Z,97075.91
2018-10-16T12:25:52.874Z,97075.53
2018-10-16T12:28:20.268Z,97073.95
2018-10-16T12:30:47.659Z,97067.42
2018-10-16T12:33:15.088Z,97071.15
2018-10-16T12:35:42.377Z,97067.33
2018-10-16T12:38:09.702Z,97069.92
2018-10-16T12:40:37.110Z,97060.32
2018-10-16T12:43:04.675Z,97056.23
2018-10-16T12:45:32.103Z,97058.58
2018-10-16T12:47:59.571Z,97055.08
2018-10-16T12:50:26.986Z,97052.88
2018-10-16T12:52:54.391Z,97051.25
2018-10-16T12:55:21.650Z,97046.28
2018-10-16T12:57:49.193Z,97051.33
2018-10-16T13:00:16.757Z,97048.20
2018-10-16T13:02:44.301Z,97054.61
2018-10-16T13:05:11.875Z,97056.05
2018-10-16T13:07:39.846Z,97053.53
2018-10-16T13:10:10.218Z,97065.83
2018-10-16T13:12:37.690Z,97066.58
2018-10-16T13:15:06.917Z,97057.36
2018-10-16T13:17:34.510Z,97058.48
2018-10-16T13:20:02.061Z,97065.75
2018-10-16T13:22:29.479Z,97060.53
2018-10-16T13:24:56.904Z,97057.36
2018-10-16T13:27:24.254Z,97061.08
2018-10-16T13:29:51.664Z,97062.31
2018-10-16T13:32:19.245Z,97064.03
2018-10-16T13:34:46.777Z,97058.45
2018-10-16T13:37:14.671Z,97067.50
2018-10-16T13:39:42.310Z,97060.64
2018-10-16T13:42:09.739Z,97060.66
2018-10-16T13:44:37.503Z,97057.14
2018-10-16T13:47:05.203Z,97061.19
2018-10-16T13:49:32.762Z,97056.56
2018-10-16T13:52:00.257Z,97053.90
2018-10-16T13:54:27.733Z,97053.36
2018-10-16T13:56:55.248Z,97052.82
2018-10-16T13:59:22.860Z,97050.25
2018-10-16T14:01:50.353Z,97049.58
2018-10-16T14:04:17.867Z,97053.97
2018-10-16T14:06:45.506Z,97047.19
2018-10-16T14:09:13.098Z,97052.89
2018-10-16T14:11:40.687Z,97047.76
2018-10-16T14:14:08.389Z,97052.35
2018-10-16T14:16:35.945Z,97045.59
2018-10-16T14:19:03.495Z,97045.43
2018-10-16T14:21:31.008Z,97046.14
2018-10-16T14:23:58.553Z,97042.74
2018-10-16T14:26:26.288Z,97043.81
2018-10-16T14:28:53.979Z,97035.79
2018-10-16T14:31:25.075Z,97039.28
2018-10-16T14:33:55.153Z,97043.37
2018-10-16T14:36:23.058Z,97044.25
2018-10-16T14:38:51.261Z,97039.69
2018-10-16T14:41:19.129Z,97042.38
2018-10-16T14:43:47.229Z,97043.72
2018-10-16T14:46:16.442Z,97038.47
2018-10-16T14:48:44.099Z,97038.70
2018-10-16T14:51:11.632Z,97040.08
2018-10-16T14:53:39.201Z,97045.33
2018-10-16T14:56:07.012Z,97054.20
2018-10-16T14:58:34.956Z,97058.49
2018-10-16T15:01:02.634Z,97057.05
2018-10-16T15:03:30.503Z,96833.48
2018-10-16T15:08:44.525Z,97055.35
2018-10-16T15:13:58.275Z,97050.92
2018-10-16T15:18:53.478Z,97055.45
2018-10-16T15:21:21.259Z,97050.48
2018-10-16T15:23:49.083Z,97055.95
2018-10-16T15:26:19.198Z,97054.75
2018-10-16T15:28:48.338Z,97060.69
2018-10-16T15:31:16.068Z,97064.84
2018-10-16T15:33:43.900Z,97065.80
2018-10-16T15:38:57.558Z,97069.69
2018-10-16T15:41:25.360Z,97075.87
2018-10-16T15:43:53.118Z,97078.17
2018-10-16T15:46:21.130Z,97076.23
2018-10-16T15:51:30.623Z,97077.57
2018-10-16T15:53:58.466Z,96822.25
2018-10-16T15:56:26.170Z,97079.70
2018-10-16T15:58:53.819Z,97086.26
2018-10-16T16:01:21.608Z,97084.00
2018-10-16T16:03:49.388Z,97087.03
2018-10-16T16:06:17.446Z,97087.75
2018-10-16T16:08:45.387Z,97087.55
2018-10-16T16:11:13.275Z,97093.07
2018-10-16T16:13:40.956Z,97092.57
2018-10-16T16:16:08.906Z,97096.85
2018-10-16T16:18:36.676Z,97099.76
2018-10-16T16:21:05.718Z,97098.98
2018-10-16T16:23:33.658Z,97103.27
2018-10-16T16:26:01.751Z,97106.23
2018-10-16T16:28:29.377Z,97106.11
2018-10-16T16:30:57.221Z,97107.34
2018-10-16T16:33:25.040Z,96876.44
2018-10-16T16:35:52.734Z,97113.22
2018-10-16T16:38:20.562Z,97106.64
2018-10-16T16:40:48.671Z,97111.95
2018-10-16T16:43:16.495Z,97116.23
2018-10-16T16:45:44.246Z,97111.56
2018-10-16T16:48:11.924Z,97116.69
2018-10-16T16:50:39.414Z,97115.45
2018-10-16T16:53:07.061Z,97115.34
2018-10-16T16:55:34.642Z,97125.44
2018-10-16T16:58:02.327Z,97118.63
2018-10-16T17:00:29.794Z,97117.50
2018-10-16T17:02:57.295Z,97118.49
2018-10-16T17:05:24.982Z,97113.31
2018-10-16T17:07:52.624Z,97119.48
2018-10-16T17:10:20.418Z,97119.25
2018-10-16T17:12:48.177Z,97127.30
2018-10-16T17:15:16.265Z,97122.96
2018-10-16T17:17:45.200Z,97126.49
2018-10-16T17:20:13.220Z,97133.97
2018-10-16T17:22:40.868Z,97133.29
2018-10-16T17:25:11.163Z,97135.39
2018-10-16T17:27:38.638Z,97134.06
2018-10-16T17:30:09.278Z,97135.39
2018-10-16T17:32:36.978Z,97138.06
2018-10-16T17:35:05.761Z,97143.56
2018-10-16T17:37:33.329Z,97147.10
2018-10-16T17:40:01.018Z,97146.78
2018-10-16T17:42:28.551Z,97150.68
2018-10-16T17:44:56.067Z,97151.67
2018-10-16T17:47:23.641Z,97151.14
2018-10-16T17:49:51.218Z,97151.82
2018-10-16T17:52:18.769Z,97154.25
2018-10-16T17:54:46.397Z,97156.45
2018-10-16T17:57:14.044Z,97155.67
2018-10-16T17:59:41.606Z,97154.39
2018-10-16T18:02:09.063Z,97155.73
2018-10-16T18:04:36.732Z,97158.83
2018-10-16T18:07:04.247Z,97162.27
2018-10-16T18:09:31.706Z,97160.11
2018-10-16T18:11:59.466Z,97165.58
2018-10-16T18:14:32.506Z,97158.31
2018-10-16T18:17:00.422Z,97164.52
2018-10-16T18:19:27.978Z,97168.80
2018-10-16T18:21:55.560Z,97171.68
2018-10-16T18:24:23.125Z,97163.22
2018-10-16T18:26:50.789Z,97167.47
2018-10-16T18:29:18.333Z,97161.59
2018-10-16T18:31:45.800Z,97162.86
2018-10-16T18:34:13.362Z,97167.70
2018-10-16T18:36:40.931Z,97170.47
2018-10-16T18:39:08.586Z,97164.05
2018-10-16T18:41:36.674Z,97165.03
2018-10-16T18:44:04.364Z,97162.03
2018-10-16T18:46:31.907Z,97155.56
2018-10-16T18:48:59.476Z,97154.64
2018-10-16T18:51:28.144Z,97157.80
2018-10-16T18:53:55.891Z,97165.83
2018-10-16T18:56:23.576Z,97162.14
2018-10-16T18:58:51.135Z,97165.22
2018-10-16T19:01:18.768Z,97163.34
2018-10-16T19:03:46.369Z,97163.65
2018-10-16T19:06:13.973Z,97164.47
2018-10-16T19:08:41.618Z,97170.91
2018-10-16T19:11:09.146Z,97166.56
2018-10-16T19:13:36.738Z,97170.70
2018-10-16T19:16:04.770Z,97171.36
2018-10-16T19:18:32.438Z,97174.59
2018-10-16T19:21:00.229Z,97176.22
2018-10-16T19:23:27.768Z,97178.97
2018-10-16T19:25:55.311Z,97176.63
2018-10-16T19:28:23.191Z,97177.08
2018-10-16T19:30:50.935Z,97172.16
2018-10-16T19:33:18.698Z,97177.21
2018-10-16T19:35:46.191Z,97183.03
2018-10-16T19:38:13.891Z,97184.17
2018-10-16T19:40:41.529Z,97191.35
2018-10-16T19:43:09.058Z,97186.75
2018-10-16T19:45:37.601Z,97185.27
2018-10-16T19:48:05.574Z,97188.47
2018-10-16T19:50:33.367Z,97183.84
2018-10-16T19:53:01.134Z,97190.43
2018-10-16T19:55:28.972Z,97186.86
2018-10-16T19:57:56.856Z,97185.55
2018-10-16T20:00:24.942Z,97186.92
2018-10-16T20:02:52.993Z,97192.56
2018-10-16T20:05:21.725Z,97187.55
2018-10-16T20:07:49.329Z,97190.44
2018-10-16T20:10:16.928Z,97190.03
2018-10-16T20:12:44.549Z,97194.33
2018-10-16T20:15:12.749Z,97200.09
2018-10-16T20:17:40.310Z,97199.86
2018-10-16T20:20:08.607Z,97198.30
2018-10-16T20:22:36.243Z,97202.80
2018-10-16T20:25:04.181Z,97210.69
2018-10-16T20:27:31.938Z,97206.54
2018-10-16T20:29:59.659Z,97213.34
2018-10-16T20:32:27.370Z,97209.37
2018-10-16T20:34:54.980Z,97199.38
2018-10-16T20:37:22.682Z,97201.95
2018-10-16T20:39:50.203Z,97205.17
2018-10-16T20:42:17.800Z,97193.80
2018-10-16T20:44:45.393Z,97201.63
2018-10-16T20:47:13.162Z,97197.44
2018-10-16T20:49:40.650Z,97191.02
2018-10-16T20:52:08.174Z,97195.33
2018-10-16T20:54:35.748Z,97185.13
2018-10-16T20:57:03.526Z,97184.38
2018-10-16T20:59:31.085Z,97185.37
2018-10-16T21:01:58.641Z,97189.56
2018-10-16T21:04:26.189Z,97192.92
2018-10-16T21:06:53.948Z,97193.23
2018-10-16T21:09:21.416Z,97188.17
2018-10-16T21:11:48.933Z,96941.89
2018-10-16T21:14:16.566Z,97192.45
2018-10-16T21:16:44.577Z,97196.46
2018-10-16T21:19:12.399Z,97198.67
2018-10-16T21:21:39.921Z,97193.33
2018-10-16T21:24:07.562Z,97196.20
2018-10-16T21:26:35.210Z,97193.20
2018-10-16T21:29:02.971Z,97192.78
2018-10-16T21:31:30.748Z,97190.32
2018-10-16T21:33:58.364Z,97190.63
2018-10-16T21:36:25.910Z,97190.94
2018-10-16T21:38:53.471Z,97190.06
2018-10-16T21:41:21.054Z,97189.45
2018-10-16T21:43:48.692Z,97176.39
2018-10-16T21:46:16.280Z,97184.70
2018-10-16T21:48:44.272Z,97190.36
2018-10-16T21:51:12.141Z,97192.84
2018-10-16T21:53:39.753Z,97183.96
2018-10-16T21:56:07.490Z,97182.50
2018-10-16T21:58:35.274Z,97186.28
2018-10-16T22:01:10.099Z,97183.05
2018-10-16T22:03:37.936Z,97186.95
2018-10-16T22:06:05.724Z,97197.83
2018-10-16T22:08:33.216Z,97193.91
2018-10-16T22:11:00.844Z,97193.14
2018-10-16T22:13:28.579Z,97191.95
2018-10-16T22:15:56.148Z,97194.20
2018-10-16T22:18:23.780Z,97191.92
2018-10-16T22:20:51.427Z,97203.58
2018-10-16T22:23:19.078Z,97195.41
2018-10-16T22:25:46.686Z,97197.13
2018-10-16T22:28:14.260Z,97194.50
2018-10-16T22:30:41.808Z,97197.16
2018-10-16T22:33:09.787Z,97199.00
2018-10-16T22:35:37.332Z,97194.14
2018-10-16T22:38:05.493Z,97200.04
2018-10-16T22:40:33.182Z,97192.28
2018-10-16T22:43:00.822Z,97195.28
2018-10-16T22:45:28.511Z,97191.56
2018-10-16T22:47:56.207Z,97185.86
2018-10-16T22:50:23.880Z,97192.35
2018-10-16T22:52:51.615Z,97192.44
2018-10-16T22:55:19.327Z,97190.31
2018-10-16T22:57:46.854Z,97199.63
2018-10-16T23:00:16.056Z,97189.89
2018-10-16T23:02:44.339Z,97189.16
2018-10-16T23:05:12.228Z,97195.77
2018-10-16T23:07:39.629Z,97188.74
2018-10-16T23:10:07.295Z,97194.11
2018-10-16T23:12:34.836Z,97194.03
2018-10-16T23:15:02.399Z,97196.85
2018-10-16T23:17:30.068Z,97194.03
2018-10-16T23:19:57.677Z,97193.44
2018-10-16T23:22:25.305Z,97193.33
2018-10-16T23:24:52.798Z,97194.10
2018-10-16T23:27:20.311Z,97194.45
2018-10-16T23:29:47.892Z,97197.28
2018-10-16T23:32:15.521Z,97192.11
2018-10-16T23:34:43.179Z,97194.02
2018-10-16T23:37:10.970Z,97191.34
2018-10-16T23:39:38.510Z,97192.06
2018-10-16T23:42:06.123Z,97192.02
2018-10-16T23:44:33.682Z,97199.73
2018-10-16T23:47:01.321Z,97194.38
2018-10-16T23:49:29.070Z,97196.85
2018-10-16T23:51:56.558Z,97195.27
2018-10-16T23:54:24.155Z,97192.97
2018-10-16T23:56:51.645Z,97189.53
2018-10-16T23:59:19.124Z,97197.95
